sensor_id;sensor_type;location;lat;lon;timestamp;pressure;altitude;pressure_sealevel;temperature;humidity
79316;BME280;68779;50.036;19.964;2023-03-23T00:09:39;101223.75;;;8.40;71.61
79316;BME280;68779;50.036;19.964;2023-03-23T00:24:47;101223.00;;;8.27;72.09
79316;BME280;68779;50.036;19.964;2023-03-23T00:39:57;101222.95;;;8.16;72.56
79316;BME280;68779;50.036;19.964;2023-03-23T00:55:06;101201.24;;;8.05;73.08
79316;BME280;68779;50.036;19.964;2023-03-23T01:10:20;101194.70;;;7.96;73.02
79316;BME280;68779;50.036;19.964;2023-03-23T01:25:28;101192.84;;;7.86;73.12
79316;BME280;68779;50.036;19.964;2023-03-23T01:40:37;101188.01;;;7.78;73.57
79316;BME280;68779;50.036;19.964;2023-03-23T01:55:42;101194.01;;;7.70;73.97
79316;BME280;68779;50.036;19.964;2023-03-23T02:10:55;101196.87;;;7.80;74.01
79316;BME280;68779;50.036;19.964;2023-03-23T02:41:25;101197.03;;;7.90;75.24
79316;BME280;68779;50.036;19.964;2023-03-23T02:56:32;101199.22;;;7.85;75.52
79316;BME280;68779;50.036;19.964;2023-03-23T03:11:50;101178.20;;;7.88;75.11
79316;BME280;68779;50.036;19.964;2023-03-23T03:26:54;101176.01;;;7.93;75.05
79316;BME280;68779;50.036;19.964;2023-03-23T03:42:03;101163.93;;;7.86;75.24
79316;BME280;68779;50.036;19.964;2023-03-23T03:57:10;101157.88;;;7.83;75.50
79316;BME280;68779;50.036;19.964;2023-03-23T04:12:20;101153.55;;;7.80;75.59
79316;BME280;68779;50.036;19.964;2023-03-23T04:27:28;101154.79;;;7.76;75.71
79316;BME280;68779;50.036;19.964;2023-03-23T04:42:38;101160.81;;;7.80;75.50
79316;BME280;68779;50.036;19.964;2023-03-23T04:57:47;101166.36;;;7.78;75.78
79316;BME280;68779;50.036;19.964;2023-03-23T05:12:53;101173.61;;;7.78;75.74
79316;BME280;68779;50.036;19.964;2023-03-23T05:28:01;101182.24;;;7.83;75.78
79316;BME280;68779;50.036;19.964;2023-03-23T05:43:10;101171.07;;;7.98;76.12
79316;BME280;68779;50.036;19.964;2023-03-23T05:58:24;101174.57;;;8.22;76.18
79316;BME280;68779;50.036;19.964;2023-03-23T06:13:33;101179.17;;;8.66;76.07
79316;BME280;68779;50.036;19.964;2023-03-23T06:28:40;101155.38;;;9.24;75.48
79316;BME280;68779;50.036;19.964;2023-03-23T06:43:50;101161.63;;;9.88;72.84
79316;BME280;68779;50.036;19.964;2023-03-23T06:59:06;101148.63;;;10.63;71.54
79316;BME280;68779;50.036;19.964;2023-03-23T07:14:14;101147.38;;;11.45;69.73
79316;BME280;68779;50.036;19.964;2023-03-23T07:29:21;101148.74;;;12.25;67.42
79316;BME280;68779;50.036;19.964;2023-03-23T07:44:27;101135.45;;;13.31;63.01
79316;BME280;68779;50.036;19.964;2023-03-23T07:59:37;101144.62;;;14.00;60.22
79316;BME280;68779;50.036;19.964;2023-03-23T08:14:45;101146.15;;;14.46;57.52
79316;BME280;68779;50.036;19.964;2023-03-23T08:29:54;101150.54;;;14.65;57.85
79316;BME280;68779;50.036;19.964;2023-03-23T08:45:05;101143.84;;;15.01;54.40
79316;BME280;68779;50.036;19.964;2023-03-23T09:00:21;101134.16;;;15.23;53.42
79316;BME280;68779;50.036;19.964;2023-03-23T09:15:36;101136.07;;;15.38;53.18
79316;BME280;68779;50.036;19.964;2023-03-23T09:30:43;101133.24;;;15.80;52.44
79316;BME280;68779;50.036;19.964;2023-03-23T10:01:31;101108.44;;;16.61;49.03
79316;BME280;68779;50.036;19.964;2023-03-23T10:16:51;101095.17;;;16.72;47.03
79316;BME280;68779;50.036;19.964;2023-03-23T10:32:03;101079.73;;;17.33;46.32
79316;BME280;68779;50.036;19.964;2023-03-23T10:47:20;101063.97;;;18.09;43.35
79316;BME280;68779;50.036;19.964;2023-03-23T11:02:31;101048.27;;;18.47;42.29
79316;BME280;68779;50.036;19.964;2023-03-23T11:17:42;101027.71;;;19.15;38.90
79316;BME280;68779;50.036;19.964;2023-03-23T11:32:51;101021.97;;;19.80;38.72
79316;BME280;68779;50.036;19.964;2023-03-23T11:48:19;101044.16;;;21.82;34.34
79316;BME280;68779;50.036;19.964;2023-03-23T13:04:40;101001.73;;;18.88;38.64
79316;BME280;68779;50.036;19.964;2023-03-23T13:35:17;101022.20;;;18.21;40.88
79316;BME280;68779;50.036;19.964;2023-03-23T13:50:28;101002.56;;;18.24;42.09
79316;BME280;68779;50.036;19.964;2023-03-23T14:20:57;100988.71;;;18.17;41.77
79316;BME280;68779;50.036;19.964;2023-03-23T14:36:04;100983.19;;;18.02;43.00
79316;BME280;68779;50.036;19.964;2023-03-23T14:51:19;100981.48;;;18.31;43.36
79316;BME280;68779;50.036;19.964;2023-03-23T15:06:29;100994.96;;;18.11;43.24
79316;BME280;68779;50.036;19.964;2023-03-23T15:21:46;100982.15;;;17.89;43.41
79316;BME280;68779;50.036;19.964;2023-03-23T15:36:58;100984.86;;;17.74;44.12
79316;BME280;68779;50.036;19.964;2023-03-23T15:52:10;100975.55;;;17.61;44.63
79316;BME280;68779;50.036;19.964;2023-03-23T16:07:22;100977.30;;;17.39;46.13
79316;BME280;68779;50.036;19.964;2023-03-23T16:22:28;100985.77;;;17.07;47.12
79316;BME280;68779;50.036;19.964;2023-03-23T16:37:36;100983.09;;;16.76;48.80
79316;BME280;68779;50.036;19.964;2023-03-23T16:52:45;100985.47;;;16.40;49.94
79316;BME280;68779;50.036;19.964;2023-03-23T17:07:52;100999.36;;;15.92;51.57
79316;BME280;68779;50.036;19.964;2023-03-23T17:23:00;101008.19;;;15.47;52.22
79316;BME280;68779;50.036;19.964;2023-03-23T17:38:12;101015.50;;;15.14;53.52
79316;BME280;68779;50.036;19.964;2023-03-23T17:53:25;101017.18;;;14.91;53.80
79316;BME280;68779;50.036;19.964;2023-03-23T18:08:30;101055.74;;;14.64;54.53
79316;BME280;68779;50.036;19.964;2023-03-23T18:23:37;101048.46;;;14.39;55.32
79316;BME280;68779;50.036;19.964;2023-03-23T18:54:23;101079.70;;;14.03;56.42
79316;BME280;68779;50.036;19.964;2023-03-23T19:09:28;101082.14;;;13.88;57.08
79316;BME280;68779;50.036;19.964;2023-03-23T19:24:30;101101.23;;;13.80;58.04
79316;BME280;68779;50.036;19.964;2023-03-23T19:39:44;101094.86;;;13.71;58.36
79316;BME280;68779;50.036;19.964;2023-03-23T19:54:53;101085.66;;;13.55;58.54
79316;BME280;68779;50.036;19.964;2023-03-23T20:09:58;101074.25;;;13.42;58.61
79316;BME280;68779;50.036;19.964;2023-03-23T20:25:04;101096.57;;;13.37;57.67
79316;BME280;68779;50.036;19.964;2023-03-23T20:40:11;101090.98;;;13.39;57.55
79316;BME280;68779;50.036;19.964;2023-03-23T20:55:19;101121.95;;;13.47;57.71
79316;BME280;68779;50.036;19.964;2023-03-23T21:10:26;101132.41;;;13.52;57.47
79316;BME280;68779;50.036;19.964;2023-03-23T21:25:42;101130.94;;;13.57;57.24
79316;BME280;68779;50.036;19.964;2023-03-23T21:40:56;101091.59;;;13.50;58.63
79316;BME280;68779;50.036;19.964;2023-03-23T21:56:02;101105.24;;;13.33;59.69
79316;BME280;68779;50.036;19.964;2023-03-23T22:11:10;101118.06;;;13.05;59.82
79316;BME280;68779;50.036;19.964;2023-03-23T22:26:16;101123.51;;;13.05;59.54
79316;BME280;68779;50.036;19.964;2023-03-23T22:41:29;101137.61;;;13.27;58.70
79316;BME280;68779;50.036;19.964;2023-03-23T22:56:35;101134.41;;;13.32;59.44
79316;BME280;68779;50.036;19.964;2023-03-23T23:11:40;101140.22;;;13.29;60.22
79316;BME280;68779;50.036;19.964;2023-03-23T23:26:43;101137.38;;;13.21;61.05
79316;BME280;68779;50.036;19.964;2023-03-23T23:41:48;101137.08;;;13.24;60.98
79316;BME280;68779;50.036;19.964;2023-03-23T23:57:03;101120.23;;;13.28;60.50
